Time;durP1;ratioP1;P1;durP2;ratioP2;P2;SDS_P1;SDS_P2;PMS_P1;PMS_P2;Temp;Humidity;BMP_temperature;BMP_pressure;BME280_temperature;BME280_humidity;BME280_pressure;Samples;Min_cycle;Max_cycle;Signal;HPM_P1;HPM_P2
2021/09/20 00:00:44;;;;;;;4.85;2.67;;;11.50;99.90;;;;;;5018544;28;20025;-86
2021/09/20 00:03:10;;;;;;;11.27;3.28;;;11.40;99.90;;;;;;5017770;28;20093;-87
2021/09/20 00:05:36;;;;;;;4.85;2.95;;;11.40;99.90;;;;;;5030374;28;20040;-87
2021/09/20 00:08:02;;;;;;;3.47;2.47;;;11.40;99.90;;;;;;5033027;28;20033;-86
2021/09/20 00:10:28;;;;;;;5.05;2.90;;;11.40;99.90;;;;;;5035226;28;20030;-86
2021/09/20 00:12:54;;;;;;;2.97;2.63;;;11.40;99.90;;;;;;5033471;28;20030;-86
2021/09/20 00:15:19;;;;;;;3.35;2.28;;;11.40;99.90;;;;;;5031632;28;20036;-87
2021/09/20 00:17:45;;;;;;;4.47;2.78;;;11.40;99.90;;;;;;5033029;28;20032;-87
2021/09/20 00:20:14;;;;;;;6.07;3.28;;;11.30;99.90;;;;;;5033171;28;20033;-87
2021/09/20 00:22:41;;;;;;;4.03;3.08;;;11.30;99.90;;;;;;5016507;28;20079;-86
2021/09/20 00:25:08;;;;;;;6.22;2.75;;;11.30;99.90;;;;;;5015447;28;20026;-86
2021/09/20 00:27:34;;;;;;;5.97;2.90;;;11.30;99.90;;;;;;5034285;28;20026;-86
2021/09/20 00:30:00;;;;;;;4.95;2.65;;;11.30;99.90;;;;;;5015445;28;20025;-87
2021/09/20 00:32:30;;;;;;;4.40;3.00;;;11.50;99.90;;;;;;5034787;28;20539;-87
2021/09/20 00:34:55;;;;;;;3.55;2.90;;;11.30;99.90;;;;;;5034482;28;20025;-86
2021/09/20 00:37:21;;;;;;;5.22;3.40;;;11.30;99.90;;;;;;5033215;28;20033;-86
2021/09/20 00:39:46;;;;;;;12.43;3.22;;;11.30;99.90;;;;;;5033748;28;20049;-87
2021/09/20 00:42:12;;;;;;;6.03;3.45;;;11.30;99.90;;;;;;5034773;28;20030;-86
2021/09/20 00:44:37;;;;;;;9.43;3.58;;;11.30;99.90;;;;;;5034258;28;20096;-86
2021/09/20 00:47:03;;;;;;;10.18;3.92;;;11.30;99.90;;;;;;5034438;28;20156;-86
2021/09/20 00:49:29;;;;;;;4.13;3.15;;;11.30;99.90;;;;;;5033652;28;20093;-86
2021/09/20 00:51:54;;;;;;;8.05;2.97;;;11.20;99.90;;;;;;5034635;28;20104;-85
2021/09/20 00:54:20;;;;;;;3.95;2.70;;;11.20;99.90;;;;;;5015507;28;20034;-87
2021/09/20 00:56:46;;;;;;;4.18;2.85;;;11.20;99.90;;;;;;5033600;28;20065;-86
2021/09/20 00:59:12;;;;;;;2.90;2.45;;;11.20;99.90;;;;;;5033838;28;20086;-87
2021/09/20 01:01:38;;;;;;;9.40;2.75;;;11.20;99.90;;;;;;5033373;28;20556;-86
2021/09/20 01:04:03;;;;;;;5.65;3.10;;;11.20;99.90;;;;;;5030920;28;20047;-86
2021/09/20 01:06:29;;;;;;;4.63;2.85;;;11.20;99.90;;;;;;5034051;28;20486;-86
2021/09/20 01:08:55;;;;;;;4.75;2.88;;;11.20;99.90;;;;;;5033385;28;20033;-87
2021/09/20 01:11:22;;;;;;;6.53;3.58;;;11.20;99.90;;;;;;5016343;28;20083;-87
2021/09/20 01:13:48;;;;;;;7.25;3.60;;;11.20;99.90;;;;;;5032010;28;20105;-87
2021/09/20 01:16:14;;;;;;;3.90;2.75;;;11.20;99.90;;;;;;5030652;28;20116;-87
2021/09/20 01:18:39;;;;;;;5.03;2.53;;;11.20;99.90;;;;;;5032857;28;20021;-87
2021/09/20 01:21:05;;;;;;;7.00;3.63;;;11.20;99.90;;;;;;5032778;28;20092;-87
2021/09/20 01:23:30;;;;;;;6.00;3.22;;;11.30;99.90;;;;;;5033859;28;20033;-87
2021/09/20 01:25:56;;;;;;;5.07;3.58;;;11.10;99.90;;;;;;5031769;28;20021;-87
2021/09/20 01:28:22;;;;;;;7.80;3.65;;;11.10;99.90;;;;;;5016182;28;20021;-86
2021/09/20 01:30:47;;;;;;;5.55;3.45;;;11.10;99.90;;;;;;5031715;28;20018;-86
2021/09/20 01:33:13;;;;;;;6.63;3.45;;;11.10;99.90;;;;;;5033591;28;20450;-85
2021/09/20 01:35:39;;;;;;;9.02;3.72;;;11.10;99.90;;;;;;5031215;28;20032;-86
2021/09/20 01:38:04;;;;;;;7.20;3.38;;;11.10;99.90;;;;;;5013089;28;20112;-86
2021/09/20 01:40:30;;;;;;;4.38;3.60;;;11.10;99.90;;;;;;5032633;28;20027;-87
2021/09/20 01:42:56;;;;;;;6.95;3.25;;;11.10;99.90;;;;;;5033553;28;20481;-86
2021/09/20 01:45:25;;;;;;;5.57;3.35;;;11.10;99.90;;;;;;5032479;28;20030;-86
2021/09/20 01:47:51;;;;;;;3.92;3.30;;;11.10;99.90;;;;;;5031355;28;20033;-87
2021/09/20 01:50:17;;;;;;;4.53;2.83;;;11.10;99.90;;;;;;5033483;28;20026;-86
2021/09/20 01:52:43;;;;;;;6.15;3.33;;;11.10;99.90;;;;;;5015494;28;20086;-86
2021/09/20 01:55:09;;;;;;;3.55;2.88;;;11.10;99.90;;;;;;5031818;28;20033;-86
2021/09/20 01:57:35;;;;;;;4.25;2.70;;;11.10;99.90;;;;;;5033226;28;20025;-87
2021/09/20 02:00:03;;;;;;;6.03;3.30;;;11.20;99.90;;;;;;5032245;28;20113;-86
2021/09/20 02:02:28;;;;;;;6.00;3.30;;;11.10;99.90;;;;;;5032205;28;20029;-86
2021/09/20 02:04:54;;;;;;;4.72;3.08;;;11.10;99.90;;;;;;5014239;28;20040;-87
2021/09/20 02:07:19;;;;;;;4.47;3.05;;;11.10;99.90;;;;;;5031513;28;20029;-87
2021/09/20 02:09:45;;;;;;;9.07;4.35;;;11.00;99.90;;;;;;5033156;28;20057;-87
2021/09/20 02:12:10;;;;;;;4.65;3.08;;;11.10;99.90;;;;;;5030366;28;20062;-86
2021/09/20 02:14:36;;;;;;;3.95;3.15;;;11.00;99.90;;;;;;5025255;28;20565;-85
2021/09/20 02:17:02;;;;;;;5.15;3.25;;;10.90;99.90;;;;;;5013562;28;20091;-87
2021/09/20 02:19:28;;;;;;;4.22;3.33;;;11.00;99.90;;;;;;5032938;28;20021;-86
2021/09/20 02:21:54;;;;;;;4.38;3.00;;;11.00;99.90;;;;;;5032083;28;20056;-86
2021/09/20 02:24:19;;;;;;;4.25;2.80;;;10.90;99.90;;;;;;5031734;28;20033;-85
2021/09/20 02:26:45;;;;;;;3.40;3.10;;;11.00;99.90;;;;;;5032170;28;20378;-87
2021/09/20 02:29:11;;;;;;;5.63;2.80;;;10.90;99.90;;;;;;5032097;28;20140;-86
2021/09/20 02:31:37;;;;;;;3.88;2.95;;;10.90;99.90;;;;;;5014135;28;20033;-86
2021/09/20 02:34:03;;;;;;;3.50;2.72;;;11.00;99.90;;;;;;5013872;28;20059;-86
2021/09/20 02:36:29;;;;;;;7.25;2.92;;;11.00;99.90;;;;;;5030498;28;20025;-87
2021/09/20 02:38:54;;;;;;;7.03;2.95;;;11.10;99.90;;;;;;5032633;28;20063;-86
2021/09/20 02:41:20;;;;;;;5.93;3.25;;;10.90;99.90;;;;;;5013832;28;20037;-86
2021/09/20 02:43:46;;;;;;;3.20;2.50;;;11.00;99.90;;;;;;5030268;28;20039;-87
2021/09/20 02:46:12;;;;;;;4.93;2.83;;;10.90;99.90;;;;;;5028191;28;20072;-87
2021/09/20 02:48:38;;;;;;;3.88;2.65;;;11.00;99.90;;;;;;5032383;28;20026;-86
2021/09/20 02:51:04;;;;;;;3.90;2.78;;;11.00;99.90;;;;;;5013403;28;20379;-86
2021/09/20 02:53:32;;;;;;;6.50;2.97;;;11.00;99.90;;;;;;5032348;28;20021;-86
2021/09/20 02:55:57;;;;;;;3.95;2.88;;;11.00;99.90;;;;;;5031194;28;20045;-86
2021/09/20 02:58:23;;;;;;;6.28;3.03;;;10.90;99.90;;;;;;5031099;28;20538;-85
2021/09/20 03:00:49;;;;;;;5.07;2.75;;;11.00;99.90;;;;;;5029265;28;20059;-86
2021/09/20 03:03:14;;;;;;;4.50;2.88;;;10.90;99.90;;;;;;5032250;28;20041;-86
2021/09/20 03:05:40;;;;;;;6.88;3.30;;;10.90;99.90;;;;;;5029868;28;20398;-86
2021/09/20 03:08:06;;;;;;;12.18;3.55;;;10.90;99.90;;;;;;5030189;28;20053;-86
2021/09/20 03:10:33;;;;;;;8.00;3.67;;;10.90;99.90;;;;;;5029852;28;20045;-87
2021/09/20 03:12:58;;;;;;;5.97;3.20;;;10.90;99.90;;;;;;5031095;28;20120;-86
2021/09/20 03:15:25;;;;;;;8.45;3.20;;;11.00;99.90;;;;;;5030076;28;20121;-86
2021/09/20 03:17:50;;;;;;;3.28;2.75;;;10.90;99.90;;;;;;5030706;28;20025;-86
2021/09/20 03:20:16;;;;;;;5.15;3.22;;;11.00;99.90;;;;;;5029824;28;20072;-86
2021/09/20 03:22:42;;;;;;;4.68;2.72;;;10.90;99.90;;;;;;5030632;28;20030;-87
2021/09/20 03:25:09;;;;;;;3.55;2.97;;;10.90;99.90;;;;;;5029294;28;20053;-86
2021/09/20 03:27:35;;;;;;;4.38;3.28;;;10.90;99.90;;;;;;4994439;28;20034;-86
2021/09/20 03:30:01;;;;;;;4.57;3.08;;;10.90;99.90;;;;;;5011264;28;20029;-85
2021/09/20 03:32:26;;;;;;;3.83;3.42;;;10.90;99.90;;;;;;5030546;28;20037;-86
2021/09/20 03:34:52;;;;;;;4.07;3.00;;;10.90;99.90;;;;;;5030590;28;20017;-86
2021/09/20 03:37:18;;;;;;;6.03;3.30;;;10.90;99.90;;;;;;5028524;28;20025;-86
2021/09/20 03:39:43;;;;;;;7.10;3.83;;;10.90;99.90;;;;;;5030720;28;20139;-86
2021/09/20 03:42:09;;;;;;;4.63;2.90;;;11.00;99.90;;;;;;5030017;28;20477;-86
2021/09/20 03:44:34;;;;;;;4.40;3.00;;;10.80;99.90;;;;;;5013798;28;20113;-86
2021/09/20 03:47:00;;;;;;;10.63;3.20;;;10.70;99.90;;;;;;5030914;28;20031;-86
2021/09/20 03:49:25;;;;;;;5.75;3.50;;;10.80;99.90;;;;;;5029013;28;20477;-86
2021/09/20 03:51:51;;;;;;;4.70;3.40;;;10.80;99.90;;;;;;5030472;28;20548;-86
2021/09/20 03:54:16;;;;;;;5.45;3.22;;;10.80;99.90;;;;;;5030546;28;20092;-86
2021/09/20 03:56:42;;;;;;;4.85;2.88;;;10.80;99.90;;;;;;5030679;28;20112;-86
2021/09/20 03:59:08;;;;;;;3.78;2.95;;;10.90;99.90;;;;;;5031513;28;20044;-86
2021/09/20 04:01:33;;;;;;;4.03;3.08;;;10.80;99.90;;;;;;5029719;28;20079;-86
2021/09/20 04:03:59;;;;;;;7.20;3.50;;;10.80;99.90;;;;;;5030202;28;20486;-86
2021/09/20 04:06:25;;;;;;;4.72;3.20;;;10.70;99.90;;;;;;5029482;28;20044;-86
2021/09/20 04:08:50;;;;;;;5.70;3.95;;;10.70;99.90;;;;;;5030680;28;20441;-86
2021/09/20 04:11:16;;;;;;;7.55;3.30;;;10.80;99.90;;;;;;5030533;28;20113;-86
2021/09/20 04:13:41;;;;;;;3.30;2.80;;;10.70;99.90;;;;;;5028974;28;20485;-86
2021/09/20 04:16:07;;;;;;;4.05;2.60;;;10.70;99.90;;;;;;5029252;28;20079;-86
2021/09/20 04:18:33;;;;;;;3.50;3.10;;;10.70;99.90;;;;;;5030541;28;20084;-86
2021/09/20 04:20:58;;;;;;;3.85;2.83;;;10.70;99.90;;;;;;5031471;28;20470;-86
2021/09/20 04:23:25;;;;;;;5.72;3.55;;;10.70;99.90;;;;;;5030511;28;20033;-86
2021/09/20 04:25:51;;;;;;;3.70;2.97;;;10.70;99.90;;;;;;5027193;28;20030;-86
2021/09/20 04:28:18;;;;;;;5.25;3.00;;;10.80;99.90;;;;;;5031066;28;20108;-86
2021/09/20 04:30:44;;;;;;;5.13;2.83;;;10.80;99.90;;;;;;5029025;28;20030;-86
2021/09/20 04:33:18;;;;;;;4.75;3.03;;;10.60;99.90;;;;;;5013492;28;20585;-86
2021/09/20 04:35:45;;;;;;;4.50;3.58;;;10.60;99.90;;;;;;5031996;28;20026;-86
2021/09/20 04:38:11;;;;;;;4.57;2.92;;;10.60;99.90;;;;;;5033737;28;20029;-86
2021/09/20 04:40:38;;;;;;;4.57;3.42;;;10.60;99.90;;;;;;5033176;28;20026;-86
2021/09/20 04:43:05;;;;;;;5.03;3.78;;;10.60;99.90;;;;;;5034740;28;20026;-86
2021/09/20 04:45:31;;;;;;;3.92;3.20;;;10.60;99.90;;;;;;5032649;28;20038;-86
2021/09/20 04:47:56;;;;;;;6.88;3.47;;;10.60;99.90;;;;;;5033557;28;20028;-86
2021/09/20 04:50:22;;;;;;;6.72;3.70;;;10.70;99.90;;;;;;5033895;28;20053;-86
2021/09/20 04:52:48;;;;;;;7.45;3.55;;;10.50;99.90;;;;;;5033706;28;20057;-86
2021/09/20 04:55:13;;;;;;;5.78;3.80;;;10.60;99.90;;;;;;5032396;28;20053;-86
2021/09/20 04:57:39;;;;;;;8.68;3.55;;;10.60;99.90;;;;;;5034046;28;20033;-86
2021/09/20 05:00:06;;;;;;;7.32;3.92;;;10.60;99.90;;;;;;5033267;28;20029;-86
2021/09/20 05:02:59;;;;;;;11.10;3.63;;;10.60;99.90;;;;;;5030999;28;20501;-87
2021/09/20 05:05:25;;;;;;;5.75;3.25;;;10.60;99.90;;;;;;5028675;28;20112;-85
2021/09/20 05:07:51;;;;;;;6.80;3.47;;;10.60;99.90;;;;;;5035831;28;20117;-88
2021/09/20 05:10:17;;;;;;;6.43;3.65;;;10.60;99.90;;;;;;5021689;28;20505;-88
2021/09/20 05:12:43;;;;;;;4.50;3.90;;;10.60;99.90;;;;;;5030567;28;20534;-88
2021/09/20 05:15:09;;;;;;;5.82;3.95;;;10.70;99.90;;;;;;5023962;28;20099;-87
2021/09/20 05:17:36;;;;;;;6.30;3.38;;;10.60;99.90;;;;;;5028216;28;20152;-87
2021/09/20 05:20:01;;;;;;;10.10;3.25;;;10.60;99.90;;;;;;5033030;28;20045;-84
2021/09/20 05:22:27;;;;;;;5.90;3.40;;;10.60;99.90;;;;;;5033775;28;20030;-86
2021/09/20 05:24:53;;;;;;;5.03;3.55;;;10.60;99.90;;;;;;5033469;28;20083;-85
2021/09/20 05:27:18;;;;;;;6.50;3.30;;;10.70;99.90;;;;;;5033776;28;20026;-85
2021/09/20 05:29:44;;;;;;;5.50;3.42;;;10.70;99.90;;;;;;5034055;28;20025;-86
2021/09/20 05:32:10;;;;;;;3.88;3.15;;;10.70;99.90;;;;;;5016108;28;20029;-85
2021/09/20 05:34:36;;;;;;;5.72;3.60;;;10.70;99.90;;;;;;5033679;28;20475;-85
2021/09/20 05:37:02;;;;;;;5.63;3.45;;;10.70;99.90;;;;;;5033283;28;20037;-84
2021/09/20 05:39:27;;;;;;;8.25;3.78;;;10.70;99.90;;;;;;5033688;28;20028;-84
2021/09/20 05:41:53;;;;;;;5.25;3.28;;;10.80;99.90;;;;;;5033551;28;20082;-84
2021/09/20 05:44:19;;;;;;;5.72;3.20;;;10.80;99.90;;;;;;5016186;28;20033;-84
2021/09/20 05:46:45;;;;;;;4.57;3.40;;;10.80;99.90;;;;;;5029544;28;20041;-85
2021/09/20 05:49:10;;;;;;;4.13;2.90;;;10.80;99.90;;;;;;5020532;28;20037;-85
2021/09/20 05:51:36;;;;;;;8.60;3.10;;;10.80;99.90;;;;;;5013213;28;20562;-84
2021/09/20 05:54:01;;;;;;;5.63;3.30;;;10.80;99.90;;;;;;5022841;28;20025;-84
2021/09/20 05:56:27;;;;;;;3.72;2.97;;;10.80;99.90;;;;;;5022904;28;20053;-83
2021/09/20 05:58:53;;;;;;;5.22;3.22;;;10.90;99.90;;;;;;5013384;28;20487;-84
2021/09/20 06:01:19;;;;;;;5.78;3.90;;;10.90;99.90;;;;;;5011937;28;20397;-83
2021/09/20 06:03:44;;;;;;;5.90;3.55;;;10.90;99.90;;;;;;5011792;28;20018;-84
2021/09/20 06:06:11;;;;;;;4.57;3.20;;;10.90;99.90;;;;;;5013019;28;21446;-84
2021/09/20 06:08:37;;;;;;;5.72;3.30;;;11.00;99.90;;;;;;5011997;28;20310;-84
2021/09/20 06:11:03;;;;;;;5.57;3.88;;;11.00;99.90;;;;;;5011841;28;20450;-84
2021/09/20 06:13:29;;;;;;;4.15;3.38;;;11.10;99.90;;;;;;5011746;28;20034;-83
2021/09/20 06:15:54;;;;;;;6.47;3.13;;;11.10;99.90;;;;;;5012644;28;20049;-84
2021/09/20 06:18:20;;;;;;;5.80;3.20;;;11.10;99.90;;;;;;5012994;28;20022;-84
2021/09/20 06:20:46;;;;;;;4.75;3.05;;;11.20;99.90;;;;;;5011521;28;20022;-84
2021/09/20 06:23:11;;;;;;;4.72;3.03;;;11.20;99.90;;;;;;5012952;28;20104;-85
2021/09/20 06:25:37;;;;;;;3.08;2.78;;;11.20;99.90;;;;;;5011733;28;20172;-83
2021/09/20 06:28:04;;;;;;;3.85;2.92;;;11.20;99.90;;;;;;5011530;28;20511;-84
2021/09/20 06:30:29;;;;;;;3.63;3.22;;;11.30;99.90;;;;;;5012641;28;20037;-84
2021/09/20 06:32:55;;;;;;;4.75;3.05;;;11.30;99.90;;;;;;5012749;28;20284;-84
2021/09/20 06:35:20;;;;;;;11.70;3.22;;;11.20;99.90;;;;;;5012230;28;20037;-84
2021/09/20 06:37:46;;;;;;;4.70;3.42;;;11.30;99.90;;;;;;5011295;28;20029;-83
2021/09/20 06:40:13;;;;;;;8.35;3.30;;;11.40;99.90;;;;;;5011431;28;20030;-83
2021/09/20 06:42:38;;;;;;;5.45;3.58;;;11.40;99.90;;;;;;5011229;28;20026;-84
2021/09/20 06:45:05;;;;;;;7.38;3.63;;;11.40;99.90;;;;;;5012267;28;20041;-84
2021/09/20 06:47:32;;;;;;;4.25;3.22;;;11.50;99.90;;;;;;5011019;28;20120;-84
2021/09/20 06:49:57;;;;;;;4.68;3.60;;;11.50;99.90;;;;;;5012490;28;20108;-84
2021/09/20 06:52:23;;;;;;;5.65;3.60;;;11.60;99.90;;;;;;5012385;28;20121;-83
2021/09/20 06:54:48;;;;;;;4.38;3.20;;;11.50;99.90;;;;;;5010797;28;20107;-84
2021/09/20 06:57:14;;;;;;;6.65;3.53;;;11.50;99.90;;;;;;5011921;28;20475;-84
2021/09/20 06:59:40;;;;;;;8.70;3.83;;;11.50;99.90;;;;;;5010877;28;20077;-84
2021/09/20 07:02:05;;;;;;;11.02;3.83;;;11.60;99.90;;;;;;5011065;28;20026;-84
2021/09/20 07:04:32;;;;;;;7.18;3.35;;;11.60;99.90;;;;;;5011895;28;20364;-84
2021/09/20 07:06:57;;;;;;;5.88;3.25;;;11.50;99.90;;;;;;5012235;28;20120;-84
2021/09/20 07:09:23;;;;;;;4.68;4.10;;;11.60;99.90;;;;;;5012233;28;20431;-83
2021/09/20 07:11:49;;;;;;;5.75;3.38;;;11.60;99.90;;;;;;5011971;28;20170;-84
2021/09/20 07:14:14;;;;;;;6.32;3.53;;;11.60;99.90;;;;;;5010922;28;20092;-84
2021/09/20 07:16:41;;;;;;;7.00;3.80;;;11.80;99.90;;;;;;5010731;28;20022;-83
2021/09/20 07:19:07;;;;;;;4.82;3.60;;;11.70;99.90;;;;;;5010615;28;20018;-83
2021/09/20 07:21:32;;;;;;;4.65;3.85;;;11.70;99.90;;;;;;5012091;28;20032;-83
2021/09/20 07:23:59;;;;;;;4.45;3.10;;;11.80;99.90;;;;;;5011999;28;20029;-83
2021/09/20 07:26:27;;;;;;;6.70;3.47;;;11.80;99.90;;;;;;5010623;28;20105;-83
2021/09/20 07:28:53;;;;;;;4.93;3.65;;;11.90;99.90;;;;;;5011919;28;20075;-83
2021/09/20 07:31:20;;;;;;;5.82;3.85;;;11.90;99.90;;;;;;5010953;28;20437;-84
2021/09/20 07:33:47;;;;;;;5.45;3.92;;;11.90;99.90;;;;;;5011587;28;20026;-84
2021/09/20 07:36:13;;;;;;;7.70;4.38;;;11.90;99.90;;;;;;5010700;28;20099;-84
2021/09/20 07:38:38;;;;;;;12.70;4.30;;;12.00;99.90;;;;;;5012240;28;20156;-84
2021/09/20 07:41:07;;;;;;;8.05;4.20;;;12.10;99.90;;;;;;5010566;28;20030;-85
2021/09/20 07:43:33;;;;;;;5.93;3.72;;;12.10;99.90;;;;;;5010760;28;20041;-85
2021/09/20 07:45:59;;;;;;;3.63;2.88;;;12.10;99.90;;;;;;5011757;28;20101;-87
2021/09/20 07:48:25;;;;;;;4.93;3.70;;;12.10;99.90;;;;;;5010330;28;20117;-86
2021/09/20 07:50:51;;;;;;;5.75;3.65;;;12.10;99.90;;;;;;5011808;28;20025;-86
2021/09/20 07:53:17;;;;;;;5.97;3.85;;;12.20;99.90;;;;;;5011751;28;20037;-87
2021/09/20 07:55:43;;;;;;;4.15;3.38;;;12.30;99.90;;;;;;5011591;28;20026;-87
2021/09/20 07:58:09;;;;;;;4.10;3.70;;;12.50;99.90;;;;;;5011737;28;20097;-86
2021/09/20 08:00:36;;;;;;;7.40;4.40;;;12.50;99.90;;;;;;5010415;28;20176;-87
2021/09/20 08:03:06;;;;;;;3.92;3.35;;;12.50;99.90;;;;;;5011658;28;20037;-87
2021/09/20 08:05:33;;;;;;;8.52;3.78;;;12.50;99.90;;;;;;5011438;28;20034;-87
2021/09/20 08:07:58;;;;;;;5.95;4.00;;;12.50;99.90;;;;;;5011629;28;20038;-86
2021/09/20 08:10:24;;;;;;;6.55;4.47;;;12.60;99.90;;;;;;5013081;28;20045;-88
2021/09/20 08:12:49;;;;;;;8.18;3.65;;;12.80;99.90;;;;;;5015442;28;20030;-87
2021/09/20 08:15:16;;;;;;;6.80;3.78;;;12.70;99.90;;;;;;5014420;28;20120;-87
2021/09/20 08:17:41;;;;;;;7.55;3.88;;;12.80;99.90;;;;;;5015389;28;20029;-87
2021/09/20 08:20:10;;;;;;;7.13;4.05;;;12.90;99.90;;;;;;5015458;28;20321;-87
2021/09/20 08:22:36;;;;;;;12.13;4.35;;;12.90;99.90;;;;;;5015253;28;20025;-87
2021/09/20 08:25:03;;;;;;;8.75;3.53;;;13.00;99.90;;;;;;5013970;28;20497;-85
2021/09/20 08:27:29;;;;;;;7.25;3.95;;;12.90;99.90;;;;;;5014952;28;20038;-85
2021/09/20 08:29:54;;;;;;;5.47;3.45;;;13.10;99.90;;;;;;5014976;28;20053;-85
2021/09/20 08:32:20;;;;;;;7.13;4.03;;;13.10;99.90;;;;;;5014926;28;20080;-85
2021/09/20 08:34:46;;;;;;;7.20;3.85;;;13.20;99.90;;;;;;5013376;28;20022;-86
2021/09/20 08:37:12;;;;;;;8.95;4.22;;;13.30;99.90;;;;;;5015021;28;20034;-86
2021/09/20 08:39:38;;;;;;;10.45;3.63;;;13.40;99.90;;;;;;5013616;28;20018;-86
2021/09/20 08:42:03;;;;;;;4.85;3.88;;;13.50;99.90;;;;;;5014862;28;20029;-86
2021/09/20 08:44:29;;;;;;;11.00;4.30;;;13.50;99.90;;;;;;5013160;28;20034;-86
2021/09/20 08:46:55;;;;;;;8.13;4.00;;;13.60;99.90;;;;;;5014744;28;20022;-86
2021/09/20 08:49:24;;;;;;;5.35;3.72;;;13.50;99.90;;;;;;5013903;28;20172;-86
2021/09/20 08:51:51;;;;;;;7.65;4.25;;;13.50;99.90;;;;;;5014486;28;20100;-85
2021/09/20 08:54:18;;;;;;;5.22;3.47;;;13.60;99.90;;;;;;5014453;28;20022;-85
2021/09/20 08:56:44;;;;;;;8.50;4.20;;;13.70;99.90;;;;;;5014464;28;20026;-86
2021/09/20 08:59:11;;;;;;;7.63;4.25;;;13.90;99.90;;;;;;5014362;28;20030;-86
2021/09/20 09:01:38;;;;;;;7.20;3.70;;;13.90;99.90;;;;;;5013316;28;20033;-85
2021/09/20 09:04:27;;;;;;;6.28;3.90;;;14.00;99.90;;;;;;5012989;28;20438;-86
2021/09/20 09:06:55;;;;;;;8.80;4.45;;;14.10;99.90;;;;;;5013363;28;20118;-86
2021/09/20 09:09:28;;;;;;;4.93;3.97;;;14.20;99.90;;;;;;5012968;28;20029;-86
2021/09/20 09:12:07;;;;;;;13.10;4.47;;;14.30;99.90;;;;;;5012863;28;20033;-85
2021/09/20 09:14:42;;;;;;;15.38;4.35;;;14.40;99.90;;;;;;5014102;28;20389;-85
2021/09/20 09:17:36;;;;;;;7.00;4.50;;;14.50;99.90;;;;;;5014420;28;20029;-85
2021/09/20 09:20:11;;;;;;;6.82;4.10;;;14.60;99.90;;;;;;5013691;28;20018;-85
2021/09/20 09:22:55;;;;;;;8.02;4.03;;;14.60;99.90;;;;;;5012839;28;20033;-85
2021/09/20 09:25:35;;;;;;;7.97;4.43;;;14.80;99.90;;;;;;5014219;28;20045;-85
2021/09/20 09:28:11;;;;;;;4.90;3.75;;;15.00;99.90;;;;;;5013811;28;20550;-85
2021/09/20 09:30:45;;;;;;;6.13;3.80;;;15.00;99.90;;;;;;5014207;28;20372;-85
2021/09/20 09:33:16;;;;;;;7.72;4.28;;;15.20;99.90;;;;;;5012923;28;20088;-83
2021/09/20 09:35:47;;;;;;;5.70;3.95;;;15.30;99.90;;;;;;5013601;28;20025;-83
2021/09/20 09:38:13;;;;;;;12.35;4.07;;;15.60;99.90;;;;;;5013545;28;20032;-85
2021/09/20 09:40:45;;;;;;;4.72;3.05;;;15.80;99.90;;;;;;5012321;28;20550;-85
2021/09/20 09:43:11;;;;;;;6.38;4.00;;;15.90;99.90;;;;;;5013663;28;20061;-84
2021/09/20 09:45:37;;;;;;;5.40;3.10;;;15.80;99.90;;;;;;5013419;28;20483;-85
2021/09/20 09:48:10;;;;;;;4.25;3.13;;;16.00;99.90;;;;;;5013381;28;20120;-85
2021/09/20 09:50:56;;;;;;;7.63;4.45;;;16.00;99.90;;;;;;5013560;28;20054;-84
2021/09/20 09:53:43;;;;;;;3.88;2.90;;;16.40;99.90;;;;;;5013330;28;20029;-85
2021/09/20 09:56:17;;;;;;;6.50;3.08;;;16.80;99.90;;;;;;5013398;28;20017;-85
2021/09/20 09:59:09;;;;;;;4.35;2.75;;;17.20;99.90;;;;;;5013259;28;20430;-85
2021/09/20 10:01:40;;;;;;;3.55;2.75;;;17.40;99.90;;;;;;5009385;28;20045;-85
2021/09/20 10:04:13;;;;;;;4.78;3.35;;;17.70;99.90;;;;;;5013317;28;20030;-84
2021/09/20 10:06:41;;;;;;;4.65;3.00;;;17.80;99.90;;;;;;5013447;28;20088;-85
2021/09/20 10:09:16;;;;;;;6.40;3.25;;;18.20;99.90;;;;;;5011801;28;20517;-85
2021/09/20 10:11:44;;;;;;;4.20;3.00;;;18.10;99.90;;;;;;5011763;28;20076;-85
2021/09/20 10:14:11;;;;;;;3.38;2.88;;;18.10;99.90;;;;;;5012788;28;20024;-85
2021/09/20 10:16:38;;;;;;;5.80;3.10;;;18.30;99.90;;;;;;5011820;28;20451;-86
2021/09/20 10:19:05;;;;;;;3.10;2.65;;;18.20;99.90;;;;;;5011703;28;20537;-85
2021/09/20 10:21:31;;;;;;;4.95;2.50;;;18.30;99.90;;;;;;5013043;28;20026;-85
2021/09/20 10:23:58;;;;;;;4.90;2.50;;;18.50;99.90;;;;;;5012647;28;20037;-86
2021/09/20 10:26:24;;;;;;;3.70;2.70;;;18.60;99.90;;;;;;5012836;28;20026;-85
2021/09/20 10:28:52;;;;;;;3.67;2.25;;;18.70;99.90;;;;;;5011416;28;20057;-87
2021/09/20 10:31:19;;;;;;;2.75;2.15;;;18.70;99.90;;;;;;5011412;28;20026;-87
2021/09/20 10:33:45;;;;;;;4.05;2.42;;;18.90;99.90;;;;;;5012509;28;20026;-85
2021/09/20 10:36:12;;;;;;;4.35;2.22;;;19.00;99.90;;;;;;5011572;28;20043;-85
2021/09/20 10:38:38;;;;;;;5.97;3.05;;;19.20;99.90;;;;;;5012567;28;20033;-86
2021/09/20 10:41:03;;;;;;;6.28;2.90;;;19.40;99.90;;;;;;5012568;28;20077;-87
2021/09/20 10:43:29;;;;;;;11.50;2.75;;;19.40;99.90;;;;;;5012663;28;20030;-87
2021/09/20 10:45:55;;;;;;;8.45;2.78;;;19.40;99.90;;;;;;5012306;28;20026;-85
2021/09/20 10:48:27;;;;;;;4.47;2.95;;;19.50;99.90;;;;;;5011401;28;20029;-88
2021/09/20 10:50:56;;;;;;;2.45;2.13;;;19.70;99.90;;;;;;5012422;28;20486;-84
2021/09/20 10:53:28;;;;;;;5.40;2.67;;;19.70;99.90;;;;;;5012719;28;20135;-84
2021/09/20 10:56:02;;;;;;;6.32;3.22;;;19.60;99.90;;;;;;5012233;28;20041;-86
2021/09/20 10:58:47;;;;;;;5.90;2.83;;;19.70;99.90;;;;;;5012730;28;20025;-85
2021/09/20 11:01:16;;;;;;;3.95;2.55;;;19.80;99.90;;;;;;5010987;28;20463;-86
2021/09/20 11:03:48;;;;;;;5.78;2.55;;;20.10;99.90;;;;;;5012159;28;20029;-86
2021/09/20 11:06:19;;;;;;;3.15;2.45;;;20.40;99.90;;;;;;5012216;28;20030;-86
2021/09/20 11:08:45;;;;;;;4.90;3.13;;;20.90;99.90;;;;;;5010956;28;20120;-86
2021/09/20 11:11:41;;;;;;;3.65;2.50;;;21.50;99.90;;;;;;5010849;28;20104;-86
2021/09/20 11:14:18;;;;;;;6.68;2.58;;;21.90;99.90;;;;;;5011961;28;20026;-85
2021/09/20 11:16:57;;;;;;;3.20;2.40;;;21.10;99.90;;;;;;5011962;28;20026;-85
2021/09/20 11:19:28;;;;;;;6.65;2.70;;;20.40;99.90;;;;;;5012247;28;20018;-86
2021/09/20 11:22:04;;;;;;;4.85;2.70;;;20.00;99.90;;;;;;5011944;28;20029;-85
2021/09/20 11:24:35;;;;;;;5.30;2.60;;;19.60;99.90;;;;;;5011846;28;20028;-87
2021/09/20 11:27:02;;;;;;;4.75;2.83;;;19.40;99.90;;;;;;5011831;28;20053;-87
2021/09/20 11:29:28;;;;;;;4.47;2.70;;;18.90;99.90;;;;;;5012071;28;20368;-87
2021/09/20 11:31:55;;;;;;;5.40;2.47;;;18.20;99.90;;;;;;5012123;28;20033;-85
2021/09/20 11:34:28;;;;;;;5.38;3.08;;;17.90;99.90;;;;;;5011650;28;20475;-84
2021/09/20 11:36:53;;;;;;;2.85;2.53;;;17.60;99.90;;;;;;5011871;28;20018;-84
2021/09/20 11:39:20;;;;;;;4.28;3.03;;;17.90;99.90;;;;;;5011935;28;20097;-85
2021/09/20 11:41:56;;;;;;;5.22;2.60;;;17.90;99.90;;;;;;5011812;28;20026;-85
2021/09/20 11:44:27;;;;;;;4.15;2.70;;;18.20;99.90;;;;;;5014547;28;20057;-83
2021/09/20 11:46:54;;;;;;;4.90;3.50;;;18.10;99.90;;;;;;5015658;28;20029;-83
2021/09/20 11:49:19;;;;;;;8.30;3.30;;;18.40;99.90;;;;;;5014579;28;20032;-87
2021/09/20 11:51:45;;;;;;;8.15;3.35;;;18.50;99.90;;;;;;5014547;28;20033;-84
2021/09/20 11:54:27;;;;;;;8.10;2.72;;;19.30;99.90;;;;;;5015868;28;20049;-84
2021/09/20 11:56:52;;;;;;;6.38;2.67;;;19.70;99.90;;;;;;5015524;28;20026;-84
2021/09/20 11:59:19;;;;;;;6.32;2.75;;;19.60;99.90;;;;;;5015603;28;20029;-83
2021/09/20 12:01:45;;;;;;;3.40;2.40;;;20.10;99.90;;;;;;5015577;28;20478;-84
2021/09/20 12:04:10;;;;;;;4.78;2.80;;;20.40;99.90;;;;;;5015258;28;20033;-84
2021/09/20 12:06:36;;;;;;;3.05;2.50;;;20.60;99.90;;;;;;5015521;28;20076;-84
2021/09/20 12:09:03;;;;;;;6.43;2.65;;;20.30;99.90;;;;;;5015281;28;20030;-84
2021/09/20 12:11:29;;;;;;;3.83;2.80;;;19.50;99.90;;;;;;5015292;28;20080;-84
2021/09/20 12:13:56;;;;;;;5.10;2.75;;;19.10;99.90;;;;;;5013802;28;20471;-85
2021/09/20 12:16:24;;;;;;;5.03;2.80;;;19.30;99.90;;;;;;5015490;28;20022;-85
2021/09/20 12:18:49;;;;;;;3.60;2.55;;;19.60;99.90;;;;;;5013938;28;20026;-84
2021/09/20 12:21:16;;;;;;;4.68;2.85;;;20.00;99.90;;;;;;5013676;28;20030;-84
2021/09/20 12:23:44;;;;;;;3.35;2.33;;;20.10;99.90;;;;;;5014865;28;20034;-83
2021/09/20 12:26:19;;;;;;;8.50;2.83;;;20.00;99.90;;;;;;5015022;28;20041;-84
2021/09/20 12:28:54;;;;;;;5.63;3.13;;;19.40;99.90;;;;;;5015026;28;20112;-84
2021/09/20 12:31:25;;;;;;;5.18;2.63;;;19.10;99.90;;;;;;5013684;28;20022;-83
2021/09/20 12:34:01;;;;;;;6.28;2.70;;;19.50;99.90;;;;;;5013247;28;20022;-83
2021/09/20 12:36:27;;;;;;;5.30;2.67;;;20.20;99.90;;;;;;5014834;28;20014;-84
2021/09/20 12:39:12;;;;;;;10.43;2.75;;;20.70;99.90;;;;;;5013586;28;20033;-83
2021/09/20 12:41:54;;;;;;;4.25;2.65;;;21.00;99.90;;;;;;5013650;28;20022;-85
2021/09/20 12:44:41;;;;;;;4.10;2.55;;;21.20;99.90;;;;;;5014548;28;20033;-85
2021/09/20 12:47:39;;;;;;;4.43;2.47;;;21.60;99.90;;;;;;5014604;28;20046;-85